sensor_id;sensor_type;location;lat;lon;timestamp;pressure;altitude;pressure_sealevel;temperature;humidity
64753;BME280;61095;52.454;16.948;2023-04-27T02:18:22;100683.09;;;9.31;49.71
64753;BME280;61095;52.454;16.948;2023-04-27T02:23:23;100690.16;;;9.31;49.82
64753;BME280;61095;52.454;16.948;2023-04-27T02:28:24;100699.91;;;9.26;49.86
64753;BME280;61095;52.454;16.948;2023-04-27T02:33:24;100695.66;;;9.20;50.09
64753;BME280;61095;52.454;16.948;2023-04-27T02:38:25;100687.78;;;9.17;50.39
64753;BME280;61095;52.454;16.948;2023-04-27T02:43:25;100701.03;;;9.14;50.52
64753;BME280;61095;52.454;16.948;2023-04-27T02:48:26;100701.88;;;9.15;50.38
64753;BME280;61095;52.454;16.948;2023-04-27T02:53:26;100696.75;;;9.09;50.58
64753;BME280;61095;52.454;16.948;2023-04-27T02:58:26;100709.06;;;9.08;50.68
64753;BME280;61095;52.454;16.948;2023-04-27T03:03:26;100706.47;;;9.05;50.80
64753;BME280;61095;52.454;16.948;2023-04-27T03:08:27;100719.69;;;9.03;51.04
64753;BME280;61095;52.454;16.948;2023-04-27T03:13:28;100719.69;;;9.03;50.94
64753;BME280;61095;52.454;16.948;2023-04-27T03:18:28;100720.59;;;9.01;50.88
64753;BME280;61095;52.454;16.948;2023-04-27T03:23:29;100728.50;;;9.01;51.13
64753;BME280;61095;52.454;16.948;2023-04-27T03:28:29;100725.00;;;9.00;51.20
64753;BME280;61095;52.454;16.948;2023-04-27T03:33:29;100739.09;;;8.98;51.34
64753;BME280;61095;52.454;16.948;2023-04-27T03:38:30;100734.72;;;8.97;51.31
64753;BME280;61095;52.454;16.948;2023-04-27T03:43:31;100737.31;;;8.98;51.55
64753;BME280;61095;52.454;16.948;2023-04-27T03:48:31;100739.94;;;9.00;51.79
64753;BME280;61095;52.454;16.948;2023-04-27T03:53:32;100744.31;;;8.99;51.75
64753;BME280;61095;52.454;16.948;2023-04-27T03:58:32;100740.72;;;9.03;51.63
64753;BME280;61095;52.454;16.948;2023-04-27T04:03:33;100746.72;;;9.10;51.79
64753;BME280;61095;52.454;16.948;2023-04-27T04:08:33;100745.63;;;9.22;51.55
64753;BME280;61095;52.454;16.948;2023-04-27T04:13:34;100749.69;;;9.37;51.56
64753;BME280;61095;52.454;16.948;2023-04-27T04:18:35;100759.91;;;9.52;51.60
64753;BME280;61095;52.454;16.948;2023-04-27T04:23:36;100752.66;;;9.61;51.36
64753;BME280;61095;52.454;16.948;2023-04-27T04:28:37;100755.03;;;9.74;51.37
64753;BME280;61095;52.454;16.948;2023-04-27T04:33:37;100770.41;;;9.92;51.23
64753;BME280;61095;52.454;16.948;2023-04-27T04:38:37;100767.22;;;10.16;51.03
64753;BME280;61095;52.454;16.948;2023-04-27T04:43:38;100770.03;;;10.44;50.33
64753;BME280;61095;52.454;16.948;2023-04-27T04:48:38;100762.09;;;10.78;50.34
64753;BME280;61095;52.454;16.948;2023-04-27T04:53:38;100764.28;;;11.26;49.75
64753;BME280;61095;52.454;16.948;2023-04-27T04:58:39;100767.53;;;11.93;49.10
64753;BME280;61095;52.454;16.948;2023-04-27T05:03:39;100771.28;;;12.40;48.90
64753;BME280;61095;52.454;16.948;2023-04-27T05:08:40;100772.50;;;12.57;47.94
64753;BME280;61095;52.454;16.948;2023-04-27T05:13:41;100774.34;;;12.55;47.27
64753;BME280;61095;52.454;16.948;2023-04-27T05:18:41;100777.91;;;12.54;46.93
64753;BME280;61095;52.454;16.948;2023-04-27T05:23:41;100786.03;;;12.47;46.67
64753;BME280;61095;52.454;16.948;2023-04-27T05:28:48;100789.09;;;12.35;46.75
64753;BME280;61095;52.454;16.948;2023-04-27T05:33:48;100793.81;;;12.26;47.06
64753;BME280;61095;52.454;16.948;2023-04-27T05:38:49;100797.53;;;12.20;47.12
64753;BME280;61095;52.454;16.948;2023-04-27T05:43:50;100805.97;;;12.05;47.17
64753;BME280;61095;52.454;16.948;2023-04-27T05:48:51;100822.16;;;11.94;47.28
64753;BME280;61095;52.454;16.948;2023-04-27T05:53:54;100811.03;;;11.83;47.17
64753;BME280;61095;52.454;16.948;2023-04-27T05:58:58;100814.75;;;11.77;47.88
64753;BME280;61095;52.454;16.948;2023-04-27T06:03:58;100820.06;;;11.76;47.56
64753;BME280;61095;52.454;16.948;2023-04-27T06:09:01;100823.31;;;11.85;47.68
64753;BME280;61095;52.454;16.948;2023-04-27T06:14:01;100820.41;;;11.93;47.44
64753;BME280;61095;52.454;16.948;2023-04-27T06:19:02;100816.81;;;11.96;47.71
64753;BME280;61095;52.454;16.948;2023-04-27T06:24:02;100821.66;;;12.11;47.51
64753;BME280;61095;52.454;16.948;2023-04-27T06:29:03;100814.72;;;12.33;47.33
64753;BME280;61095;52.454;16.948;2023-04-27T06:34:04;100821.50;;;12.42;47.15
64753;BME280;61095;52.454;16.948;2023-04-27T06:39:04;100823.81;;;12.53;46.56
64753;BME280;61095;52.454;16.948;2023-04-27T06:44:05;100820.25;;;12.54;46.44
64753;BME280;61095;52.454;16.948;2023-04-27T06:49:05;100830.94;;;12.51;46.21
64753;BME280;61095;52.454;16.948;2023-04-27T06:54:06;100827.00;;;12.62;46.01
64753;BME280;61095;52.454;16.948;2023-04-27T06:59:07;100832.00;;;12.71;45.64
64753;BME280;61095;52.454;16.948;2023-04-27T07:04:07;100828.47;;;12.71;45.53
64753;BME280;61095;52.454;16.948;2023-04-27T07:09:07;100820.59;;;12.69;45.52
64753;BME280;61095;52.454;16.948;2023-04-27T07:14:08;100817.63;;;13.05;45.26
64753;BME280;61095;52.454;16.948;2023-04-27T07:19:08;100818.56;;;13.27;44.91
64753;BME280;61095;52.454;16.948;2023-04-27T07:24:09;100821.41;;;13.69;44.47
64753;BME280;61095;52.454;16.948;2023-04-27T07:29:09;100813.22;;;14.43;43.61
64753;BME280;61095;52.454;16.948;2023-04-27T07:34:11;100821.72;;;14.93;41.81
64753;BME280;61095;52.454;16.948;2023-04-27T07:39:12;100812.72;;;15.36;40.82
64753;BME280;61095;52.454;16.948;2023-04-27T07:44:13;100812.81;;;15.72;40.01
64753;BME280;61095;52.454;16.948;2023-04-27T07:49:14;100804.13;;;16.06;37.52
64753;BME280;61095;52.454;16.948;2023-04-27T07:54:15;100811.03;;;16.29;36.21
64753;BME280;61095;52.454;16.948;2023-04-27T07:59:15;100814.16;;;16.54;35.69
64753;BME280;61095;52.454;16.948;2023-04-27T08:04:16;100814.44;;;16.84;35.23
64753;BME280;61095;52.454;16.948;2023-04-27T08:09:16;100812.38;;;17.07;34.78
64753;BME280;61095;52.454;16.948;2023-04-27T08:14:16;100819.13;;;17.14;34.10
64753;BME280;61095;52.454;16.948;2023-04-27T08:19:17;100813.09;;;17.28;33.74
64753;BME280;61095;52.454;16.948;2023-04-27T08:24:17;100825.31;;;17.32;32.84
64753;BME280;61095;52.454;16.948;2023-04-27T08:29:20;100832.31;;;17.50;33.54
64753;BME280;61095;52.454;16.948;2023-04-27T08:34:20;100822.34;;;17.54;33.09
64753;BME280;61095;52.454;16.948;2023-04-27T08:39:21;100827.75;;;17.52;33.12
64753;BME280;61095;52.454;16.948;2023-04-27T08:44:21;100825.44;;;17.46;32.93
64753;BME280;61095;52.454;16.948;2023-04-27T08:49:22;100831.88;;;17.42;32.79
64753;BME280;61095;52.454;16.948;2023-04-27T08:54:22;100823.63;;;17.46;32.07
64753;BME280;61095;52.454;16.948;2023-04-27T08:59:22;100830.44;;;17.52;31.89
64753;BME280;61095;52.454;16.948;2023-04-27T09:04:22;100832.66;;;17.44;31.79
64753;BME280;61095;52.454;16.948;2023-04-27T09:09:23;100829.78;;;17.31;32.05
64753;BME280;61095;52.454;16.948;2023-04-27T09:14:24;100826.53;;;17.42;31.37
64753;BME280;61095;52.454;16.948;2023-04-27T09:19:27;100829.69;;;17.33;31.21
64753;BME280;61095;52.454;16.948;2023-04-27T09:24:27;100820.38;;;17.07;30.80
64753;BME280;61095;52.454;16.948;2023-04-27T09:29:35;100822.66;;;16.80;30.41
64753;BME280;61095;52.454;16.948;2023-04-27T09:34:38;100813.94;;;16.59;31.00
64753;BME280;61095;52.454;16.948;2023-04-27T09:39:41;100812.75;;;16.47;30.78
64753;BME280;61095;52.454;16.948;2023-04-27T09:44:41;100820.00;;;16.27;31.37
64753;BME280;61095;52.454;16.948;2023-04-27T09:49:41;100815.28;;;16.14;31.94
64753;BME280;61095;52.454;16.948;2023-04-27T09:54:42;100818.94;;;16.31;32.06
64753;BME280;61095;52.454;16.948;2023-04-27T10:10:01;100806.91;;;15.66;30.97
64753;BME280;61095;52.454;16.948;2023-04-27T10:15:14;100809.28;;;15.53;31.20
64753;BME280;61095;52.454;16.948;2023-04-27T10:20:15;100811.88;;;15.54;31.53
64753;BME280;61095;52.454;16.948;2023-04-27T10:25:20;100812.25;;;15.66;32.01
64753;BME280;61095;52.454;16.948;2023-04-27T10:30:23;100820.38;;;15.63;31.57
64753;BME280;61095;52.454;16.948;2023-04-27T10:35:34;100816.03;;;15.79;31.29
64753;BME280;61095;52.454;16.948;2023-04-27T10:40:36;100819.66;;;15.78;31.56
64753;BME280;61095;52.454;16.948;2023-04-27T10:45:37;100827.91;;;15.72;31.30
64753;BME280;61095;52.454;16.948;2023-04-27T10:50:38;100829.28;;;15.61;31.45
64753;BME280;61095;52.454;16.948;2023-04-27T10:55:39;100838.84;;;15.47;32.07
64753;BME280;61095;52.454;16.948;2023-04-27T11:00:40;100839.47;;;15.33;32.23
64753;BME280;61095;52.454;16.948;2023-04-27T11:05:44;100838.63;;;15.31;32.37
64753;BME280;61095;52.454;16.948;2023-04-27T11:10:48;100837.91;;;15.27;31.82
64753;BME280;61095;52.454;16.948;2023-04-27T11:15:49;100842.56;;;15.22;32.10
64753;BME280;61095;52.454;16.948;2023-04-27T11:20:52;100840.84;;;15.21;32.28
64753;BME280;61095;52.454;16.948;2023-04-27T11:25:53;100844.09;;;15.28;32.29
64753;BME280;61095;52.454;16.948;2023-04-27T11:30:56;100844.38;;;15.22;32.18
64753;BME280;61095;52.454;16.948;2023-04-27T11:35:57;100847.22;;;15.17;32.01
64753;BME280;61095;52.454;16.948;2023-04-27T11:41:05;100857.41;;;15.08;31.91
64753;BME280;61095;52.454;16.948;2023-04-27T11:46:06;100854.09;;;15.03;31.97
64753;BME280;61095;52.454;16.948;2023-04-27T11:51:09;100858.94;;;15.13;32.13
64753;BME280;61095;52.454;16.948;2023-04-27T11:56:11;100856.06;;;15.18;31.95
64753;BME280;61095;52.454;16.948;2023-04-27T12:01:11;100853.22;;;15.22;32.21
64753;BME280;61095;52.454;16.948;2023-04-27T12:06:12;100856.38;;;15.30;32.22
64753;BME280;61095;52.454;16.948;2023-04-27T12:11:12;100848.88;;;15.20;31.39
64753;BME280;61095;52.454;16.948;2023-04-27T12:16:13;100852.13;;;15.26;31.18
64753;BME280;61095;52.454;16.948;2023-04-27T12:21:13;100848.16;;;15.37;31.26
64753;BME280;61095;52.454;16.948;2023-04-27T12:26:14;100854.34;;;15.37;30.91
64753;BME280;61095;52.454;16.948;2023-04-27T12:31:15;100852.88;;;15.30;31.77
64753;BME280;61095;52.454;16.948;2023-04-27T12:36:16;100850.03;;;15.35;32.24
64753;BME280;61095;52.454;16.948;2023-04-27T12:41:17;100854.06;;;15.43;32.46
64753;BME280;61095;52.454;16.948;2023-04-27T12:46:17;100850.06;;;15.53;32.44
64753;BME280;61095;52.454;16.948;2023-04-27T12:51:17;100850.78;;;15.57;32.37
64753;BME280;61095;52.454;16.948;2023-04-27T12:56:18;100856.03;;;15.58;31.75
64753;BME280;61095;52.454;16.948;2023-04-27T13:01:18;100855.66;;;15.47;31.71
64753;BME280;61095;52.454;16.948;2023-04-27T13:06:20;100864.56;;;15.46;31.79
64753;BME280;61095;52.454;16.948;2023-04-27T13:11:22;100865.63;;;15.42;32.04
64753;BME280;61095;52.454;16.948;2023-04-27T13:16:23;100871.88;;;15.41;32.33
64753;BME280;61095;52.454;16.948;2023-04-27T13:21:24;100867.09;;;15.49;32.16
64753;BME280;61095;52.454;16.948;2023-04-27T13:26:24;100863.19;;;15.38;31.95
64753;BME280;61095;52.454;16.948;2023-04-27T13:31:25;100863.31;;;15.35;32.06
64753;BME280;61095;52.454;16.948;2023-04-27T13:36:25;100872.81;;;15.20;32.47
64753;BME280;61095;52.454;16.948;2023-04-27T13:41:26;100874.41;;;15.24;32.20
64753;BME280;61095;52.454;16.948;2023-04-27T13:46:26;100875.06;;;15.29;32.64
64753;BME280;61095;52.454;16.948;2023-04-27T13:51:26;100877.66;;;15.30;32.08
64753;BME280;61095;52.454;16.948;2023-04-27T13:56:28;100883.03;;;15.29;32.11
64753;BME280;61095;52.454;16.948;2023-04-27T14:01:28;100883.97;;;15.28;31.64
64753;BME280;61095;52.454;16.948;2023-04-27T14:06:29;100887.69;;;15.24;31.67
64753;BME280;61095;52.454;16.948;2023-04-27T14:11:30;100884.97;;;15.25;32.06
64753;BME280;61095;52.454;16.948;2023-04-27T14:16:31;100892.22;;;15.22;31.97
64753;BME280;61095;52.454;16.948;2023-04-27T14:21:31;100889.16;;;15.11;32.28
64753;BME280;61095;52.454;16.948;2023-04-27T14:26:32;100888.50;;;15.06;32.16
64753;BME280;61095;52.454;16.948;2023-04-27T14:31:32;100892.88;;;15.07;32.42
64753;BME280;61095;52.454;16.948;2023-04-27T14:36:33;100892.88;;;15.07;32.25
64753;BME280;61095;52.454;16.948;2023-04-27T14:41:33;100896.53;;;15.04;32.45
64753;BME280;61095;52.454;16.948;2023-04-27T14:46:37;100888.56;;;15.04;32.40
64753;BME280;61095;52.454;16.948;2023-04-27T14:51:37;100890.50;;;15.01;32.31
64753;BME280;61095;52.454;16.948;2023-04-27T14:56:37;100894.44;;;14.90;32.34
64753;BME280;61095;52.454;16.948;2023-04-27T15:01:38;100896.03;;;14.94;38.33
64753;BME280;61095;52.454;16.948;2023-04-27T15:06:38;100893.16;;;15.21;33.90
64753;BME280;61095;52.454;16.948;2023-04-27T15:11:38;100893.75;;;15.07;33.19
64753;BME280;61095;52.454;16.948;2023-04-27T15:16:39;100888.56;;;15.04;32.74
64753;BME280;61095;52.454;16.948;2023-04-27T15:21:39;100906.31;;;15.04;32.67
64753;BME280;61095;52.454;16.948;2023-04-27T15:26:40;100903.66;;;15.04;32.93
64753;BME280;61095;52.454;16.948;2023-04-27T15:31:40;100908.53;;;14.92;32.74
64753;BME280;61095;52.454;16.948;2023-04-27T15:36:40;100897.22;;;14.87;32.87
64753;BME280;61095;52.454;16.948;2023-04-27T15:41:41;100900.13;;;14.81;33.05
64753;BME280;61095;52.454;16.948;2023-04-27T15:46:41;100904.75;;;14.76;33.62
64753;BME280;61095;52.454;16.948;2023-04-27T15:51:42;100901.78;;;14.84;33.80
64753;BME280;61095;52.454;16.948;2023-04-27T15:56:42;100899.88;;;14.87;33.81
64753;BME280;61095;52.454;16.948;2023-04-27T16:01:42;100893.38;;;14.94;33.60
64753;BME280;61095;52.454;16.948;2023-04-27T16:06:43;100905.19;;;14.87;33.37
64753;BME280;61095;52.454;16.948;2023-04-27T16:11:43;100907.16;;;14.82;33.10
64753;BME280;61095;52.454;16.948;2023-04-27T16:16:44;100895.59;;;14.83;32.93
64753;BME280;61095;52.454;16.948;2023-04-27T16:21:45;100901.03;;;14.80;32.52
64753;BME280;61095;52.454;16.948;2023-04-27T16:26:46;100896.78;;;14.76;32.31
64753;BME280;61095;52.454;16.948;2023-04-27T16:31:51;100896.19;;;14.70;32.47
64753;BME280;61095;52.454;16.948;2023-04-27T16:36:51;100884.94;;;14.63;32.38
64753;BME280;61095;52.454;16.948;2023-04-27T16:41:52;100897.94;;;14.49;32.81
64753;BME280;61095;52.454;16.948;2023-04-27T16:46:55;100895.66;;;14.40;32.71
64753;BME280;61095;52.454;16.948;2023-04-27T16:51:56;100902.03;;;14.34;32.59
64753;BME280;61095;52.454;16.948;2023-04-27T16:56:56;100903.97;;;14.30;33.21
64753;BME280;61095;52.454;16.948;2023-04-27T17:01:56;100909.38;;;14.27;33.42
64753;BME280;61095;52.454;16.948;2023-04-27T17:06:57;100906.97;;;14.21;33.37
64753;BME280;61095;52.454;16.948;2023-04-27T17:11:58;100902.91;;;14.13;34.01
64753;BME280;61095;52.454;16.948;2023-04-27T17:16:58;100907.56;;;14.06;34.69
64753;BME280;61095;52.454;16.948;2023-04-27T17:21:59;100905.91;;;14.03;35.10
64753;BME280;61095;52.454;16.948;2023-04-27T17:27:00;100909.84;;;13.93;35.09
64753;BME280;61095;52.454;16.948;2023-04-27T17:32:00;100912.72;;;13.86;35.06
64753;BME280;61095;52.454;16.948;2023-04-27T17:40:07;100912.50;;;13.68;35.54
64753;BME280;61095;52.454;16.948;2023-04-27T17:45:08;100907.53;;;13.59;35.60
64753;BME280;61095;52.454;16.948;2023-04-27T17:50:09;100907.66;;;13.56;35.63
64753;BME280;61095;52.454;16.948;2023-04-27T17:55:11;100907.16;;;13.45;35.92
64753;BME280;61095;52.454;16.948;2023-04-27T18:00:13;100916.22;;;13.38;36.35
64753;BME280;61095;52.454;16.948;2023-04-27T18:05:13;100920.84;;;13.33;36.36
64753;BME280;61095;52.454;16.948;2023-04-27T18:10:15;100925.66;;;13.22;36.95
64753;BME280;61095;52.454;16.948;2023-04-27T18:15:15;100923.38;;;13.11;37.27
64753;BME280;61095;52.454;16.948;2023-04-27T18:20:16;100923.75;;;13.00;37.02
64753;BME280;61095;52.454;16.948;2023-04-27T18:25:18;100926.78;;;12.88;37.14
64753;BME280;61095;52.454;16.948;2023-04-27T18:30:19;100928.81;;;12.80;37.65
64753;BME280;61095;52.454;16.948;2023-04-27T18:35:20;100937.94;;;12.70;37.58
64753;BME280;61095;52.454;16.948;2023-04-27T18:40:22;100942.69;;;12.60;38.17
64753;BME280;61095;52.454;16.948;2023-04-27T18:45:22;100945.78;;;12.45;38.65
64753;BME280;61095;52.454;16.948;2023-04-27T18:50:23;100949.69;;;12.33;38.89
64753;BME280;61095;52.454;16.948;2023-04-27T18:55:25;100957.84;;;12.26;39.12
64753;BME280;61095;52.454;16.948;2023-04-27T19:00:26;100960.75;;;12.18;39.29
64753;BME280;61095;52.454;16.948;2023-04-27T19:05:26;100971.59;;;12.09;39.61
64753;BME280;61095;52.454;16.948;2023-04-27T19:10:28;100973.63;;;11.99;39.92
64753;BME280;61095;52.454;16.948;2023-04-27T19:15:28;100974.84;;;11.88;40.31
64753;BME280;61095;52.454;16.948;2023-04-27T19:20:29;100977.75;;;11.78;40.40
64753;BME280;61095;52.454;16.948;2023-04-27T19:25:30;100981.56;;;11.68;40.66
64753;BME280;61095;52.454;16.948;2023-04-27T19:30:31;100978.25;;;11.60;40.88
64753;BME280;61095;52.454;16.948;2023-04-27T19:35:31;100987.19;;;11.56;41.30
64753;BME280;61095;52.454;16.948;2023-04-27T19:40:33;100990.97;;;11.44;41.30
64753;BME280;61095;52.454;16.948;2023-04-27T19:45:33;100987.53;;;11.41;41.36
64753;BME280;61095;52.454;16.948;2023-04-27T19:50:34;100991.31;;;11.31;41.46
64753;BME280;61095;52.454;16.948;2023-04-27T19:55:36;100998.59;;;11.22;41.55
64753;BME280;61095;52.454;16.948;2023-04-27T20:00:36;101000.59;;;11.13;41.89
64753;BME280;61095;52.454;16.948;2023-04-27T20:05:36;101002.47;;;11.06;42.14
64753;BME280;61095;52.454;16.948;2023-04-27T20:10:38;101004.47;;;10.97;42.41
64753;BME280;61095;52.454;16.948;2023-04-27T20:15:38;101002.94;;;10.88;42.30
64753;BME280;61095;52.454;16.948;2023-04-27T20:20:39;101001.31;;;10.82;42.61
64753;BME280;61095;52.454;16.948;2023-04-27T20:25:40;101016.47;;;10.74;42.80
64753;BME280;61095;52.454;16.948;2023-04-27T20:30:41;101007.72;;;10.72;42.74
64753;BME280;61095;52.454;16.948;2023-04-27T20:35:41;101018.56;;;10.60;43.24
64753;BME280;61095;52.454;16.948;2023-04-27T20:40:43;101014.25;;;10.54;43.34
64753;BME280;61095;52.454;16.948;2023-04-27T20:45:43;101010.13;;;10.43;43.54
64753;BME280;61095;52.454;16.948;2023-04-27T20:50:44;101013.72;;;10.39;43.81
64753;BME280;61095;52.454;16.948;2023-04-27T20:55:46;101010.31;;;10.34;43.71
64753;BME280;61095;52.454;16.948;2023-04-27T21:00:46;101006.13;;;10.25;43.89
64753;BME280;61095;52.454;16.948;2023-04-27T21:05:46;101008.97;;;10.16;44.12
64753;BME280;61095;52.454;16.948;2023-04-27T21:10:48;101001.09;;;10.11;44.17
64753;BME280;61095;52.454;16.948;2023-04-27T21:15:49;101002.03;;;10.07;44.25
64753;BME280;61095;52.454;16.948;2023-04-27T21:20:49;101007.47;;;10.00;44.41
64753;BME280;61095;52.454;16.948;2023-04-27T21:25:51;100999.69;;;9.93;44.36
64753;BME280;61095;52.454;16.948;2023-04-27T21:30:52;101004.16;;;9.90;44.57
64753;BME280;61095;52.454;16.948;2023-04-27T21:35:52;101004.41;;;9.78;44.60
64753;BME280;61095;52.454;16.948;2023-04-27T21:40:54;101001.88;;;9.72;44.71
64753;BME280;61095;52.454;16.948;2023-04-27T21:45:54;101003.00;;;9.58;45.21
64753;BME280;61095;52.454;16.948;2023-04-27T21:50:54;101005.91;;;9.43;45.82
64753;BME280;61095;52.454;16.948;2023-04-27T21:55:56;101007.84;;;9.33;45.95
64753;BME280;61095;52.454;16.948;2023-04-27T22:00:57;101017.63;;;9.25;46.10
64753;BME280;61095;52.454;16.948;2023-04-27T22:05:57;101019.50;;;9.19;46.29
64753;BME280;61095;52.454;16.948;2023-04-27T22:10:59;101010.72;;;9.17;46.21
64753;BME280;61095;52.454;16.948;2023-04-27T22:16:00;101008.19;;;9.12;46.46
64753;BME280;61095;52.454;16.948;2023-04-27T22:21:01;101014.38;;;9.08;46.45
64753;BME280;61095;52.454;16.948;2023-04-27T22:26:03;101012.75;;;9.01;46.78
64753;BME280;61095;52.454;16.948;2023-04-27T22:31:03;101008.59;;;8.86;47.30
64753;BME280;61095;52.454;16.948;2023-04-27T22:36:04;101014.94;;;8.73;47.60
64753;BME280;61095;52.454;16.948;2023-04-27T22:41:06;101013.38;;;8.60;47.90
64753;BME280;61095;52.454;16.948;2023-04-27T22:46:07;101012.53;;;8.56;48.15
64753;BME280;61095;52.454;16.948;2023-04-27T22:51:07;101019.63;;;8.51;48.50
64753;BME280;61095;52.454;16.948;2023-04-27T22:56:10;101007.44;;;8.44;48.64
